Main page
METAR-TAF:

METAR-TAF

Airports :

McKinney National Airport

McKinney, Texas, United States

latitude: 33-10-40N, longitude: 096-35-25W, elevation: 584 ft

Current weather observation

The report was made 28 minutes ago, at 19:53 UTC
Wind 13 mph from the East/Southeast with gusts up to 22 mph
Temperature 91°F
Humidity 44%
Pressure 29.89 in. Hg
Visibility: 10 miles
Clear sky

METAR: KTKI 151953Z 12011G19KT 10SM CLR 33/19 A2989 RMK AO2 SLP114 T03330194

Time: 15:21 (20:21 UTC)


TAF: missing

Weather observations and forecasts of more than 4000 airports (METAR and TAF reports).

The available stations are represented by yellow and red dots on the map.

Hover mouse over dot to see the name of the station.

Then click to see weather observations and forecasts.

To change the map : click on the green buttons with a black cross to zoom in, on the green button with a dash to zoom out, or on the green arrows for adjacent maps.


METAR-TAF: